Time;durP1;ratioP1;P1;durP2;ratioP2;P2;SDS_P1;SDS_P2;PMS_P1;PMS_P2;Temp;Humidity;BMP_temperature;BMP_pressure;BME280_temperature;BME280_humidity;BME280_pressure;Samples;Min_cycle;Max_cycle;Signal;HPM_P1;HPM_P2
2023/03/06 00:00:40;;;;;;;9.80;5.47;;;;;;;7.69;58.40;100859.44;5111727;28;20107;-60
2023/03/06 00:03:08;;;;;;;6.25;4.75;;;;;;;7.69;58.49;100855.94;5119205;28;20045;-61
2023/03/06 00:05:35;;;;;;;8.25;5.47;;;;;;;7.67;57.63;100850.78;5121782;28;20441;-60
2023/03/06 00:08:03;;;;;;;7.40;5.32;;;;;;;7.67;58.50;100850.78;5120297;28;20067;-61
2023/03/06 00:10:32;;;;;;;7.65;4.65;;;;;;;7.66;57.74;100845.66;5121353;28;20310;-60
2023/03/06 00:13:05;;;;;;;7.65;5.10;;;;;;;7.64;58.18;100840.50;5114966;28;20111;-60
2023/03/06 00:15:32;;;;;;;8.10;5.65;;;;;;;7.64;58.31;100845.03;5113369;28;20445;-61
2023/03/06 00:18:03;;;;;;;9.50;4.97;;;;;;;7.63;57.93;100833.50;5120099;28;20482;-61
2023/03/06 00:20:32;;;;;;;9.75;5.45;;;;;;;7.64;58.09;100837.81;5115573;28;20292;-61
2023/03/06 00:23:00;;;;;;;8.13;5.60;;;;;;;7.63;58.05;100825.47;5112805;28;20074;-61
2023/03/06 00:25:27;;;;;;;6.57;5.03;;;;;;;7.63;57.97;100828.16;5114346;28;20478;-61
2023/03/06 00:27:55;;;;;;;7.82;4.70;;;;;;;7.63;58.01;100824.66;5125699;28;20054;-60
2023/03/06 00:30:25;;;;;;;9.00;5.75;;;;;;;7.62;57.68;100823.84;5118376;28;20054;-61
2023/03/06 00:32:53;;;;;;;7.57;5.32;;;;;;;7.61;57.81;100824.84;5119676;28;20043;-60
2023/03/06 00:35:21;;;;;;;8.70;5.60;;;;;;;7.60;58.55;100820.53;5123678;28;20043;-61
2023/03/06 00:37:49;;;;;;;7.13;5.20;;;;;;;7.60;57.68;100817.03;5125268;28;20079;-61
2023/03/06 00:40:19;;;;;;;8.82;5.95;;;;;;;7.59;58.20;100807.38;5117228;28;20104;-61
2023/03/06 00:42:47;;;;;;;10.70;6.25;;;;;;;7.59;57.74;100812.72;5123483;27;20047;-61
2023/03/06 00:45:15;;;;;;;9.57;6.00;;;;;;;7.49;58.41;100791.72;5126441;28;20050;-67
2023/03/06 00:47:44;;;;;;;8.90;5.75;;;;;;;7.58;58.14;100800.38;5118465;27;20422;-61
2023/03/06 00:50:12;;;;;;;8.23;5.70;;;;;;;7.56;58.09;100799.75;5126294;28;20047;-61
2023/03/06 00:52:40;;;;;;;8.10;5.80;;;;;;;7.56;58.04;100800.56;5117432;28;20299;-61
2023/03/06 00:55:09;;;;;;;9.50;5.75;;;;;;;7.54;58.23;100797.28;5118645;28;20044;-59
2023/03/06 00:57:37;;;;;;;7.60;5.65;;;;;;;7.55;58.16;100806.94;5124094;28;20107;-61
2023/03/06 01:00:06;;;;;;;10.85;6.20;;;;;;;7.54;58.02;100801.81;5126297;28;20039;-60
2023/03/06 01:02:34;;;;;;;7.07;5.07;;;;;;;7.51;58.29;100795.00;5119055;28;20075;-60
2023/03/06 01:05:03;;;;;;;7.80;5.57;;;;;;;7.49;58.40;100795.22;5119059;28;20062;-61
2023/03/06 01:07:32;;;;;;;7.82;5.40;;;;;;;7.48;58.16;100795.41;5124735;27;20155;-61
2023/03/06 01:10:00;;;;;;;8.15;5.75;;;;;;;7.46;58.13;100787.59;5122922;28;21506;-61
2023/03/06 01:12:28;;;;;;;8.88;5.80;;;;;;;7.45;58.53;100785.94;5123374;28;20070;-61
2023/03/06 01:14:56;;;;;;;9.05;5.47;;;;;;;7.44;58.17;100786.97;5122582;28;20051;-61
2023/03/06 01:17:23;;;;;;;9.68;5.13;;;;;;;7.40;57.65;100777.72;5119079;27;20531;-60
2023/03/06 01:19:51;;;;;;;8.60;5.13;;;;;;;7.42;57.77;100780.19;5117389;28;20055;-59
2023/03/06 01:22:20;;;;;;;6.03;4.53;;;;;;;7.41;57.80;100778.53;5118955;28;20173;-60
2023/03/06 01:24:48;;;;;;;7.63;4.60;;;;;;;7.41;57.77;100773.19;5121997;28;20051;-60
2023/03/06 01:27:16;;;;;;;6.82;5.10;;;;;;;7.31;57.67;100759.41;5120331;28;20103;-61
2023/03/06 01:29:44;;;;;;;6.82;4.55;;;;;;;7.38;58.09;100776.28;5123453;28;20071;-61
2023/03/06 01:32:11;;;;;;;8.55;5.47;;;;;;;7.36;58.24;100776.47;5119750;27;20059;-61
2023/03/06 01:34:39;;;;;;;9.20;5.38;;;;;;;7.34;57.89;100775.84;5120149;28;20134;-61
2023/03/06 01:37:07;;;;;;;9.27;6.10;;;;;;;7.32;57.74;100777.06;5120033;27;20143;-61
2023/03/06 01:39:36;;;;;;;9.23;5.82;;;;;;;7.30;57.66;100773.78;5123731;28;20078;-61
2023/03/06 01:42:04;;;;;;;8.63;5.95;;;;;;;7.30;57.61;100765.75;5122812;28;20111;-61
2023/03/06 01:44:32;;;;;;;8.88;6.38;;;;;;;7.29;58.46;100767.63;5118984;28;20361;-61
2023/03/06 01:47:01;;;;;;;11.25;7.68;;;;;;;7.29;57.68;100766.78;5116046;28;20040;-61
2023/03/06 01:49:31;;;;;;;9.80;6.95;;;;;;;7.28;57.91;100768.63;5122314;28;20241;-61
2023/03/06 01:52:03;;;;;;;8.52;5.72;;;;;;;7.27;58.35;100761.66;5122216;28;20079;-61
2023/03/06 01:54:36;;;;;;;11.40;6.63;;;;;;;7.27;58.12;100756.31;5109430;28;20048;-60
2023/03/06 01:57:14;;;;;;;11.18;6.40;;;;;;;7.24;58.36;100756.69;5117867;28;20048;-60
2023/03/06 01:59:44;;;;;;;8.43;5.85;;;;;;;7.25;58.06;100757.53;5107890;28;20111;-60
2023/03/06 02:02:16;;;;;;;11.95;6.13;;;;;;;7.25;58.01;100760.19;5120967;28;20132;-60
2023/03/06 02:04:44;;;;;;;10.80;6.57;;;;;;;7.23;57.75;100759.56;5121535;28;20044;-60
2023/03/06 02:07:14;;;;;;;8.60;6.07;;;;;;;7.20;58.53;100750.13;5124964;28;20050;-59
2023/03/06 02:09:41;;;;;;;11.52;6.68;;;;;;;7.21;58.68;100750.94;5124226;28;20119;-59
2023/03/06 02:12:14;;;;;;;11.60;6.97;;;;;;;7.19;57.87;100751.97;5123222;28;20063;-60
2023/03/06 02:14:42;;;;;;;10.10;6.55;;;;;;;7.17;58.36;100750.53;5122596;28;20052;-61
2023/03/06 02:17:13;;;;;;;10.13;6.63;;;;;;;7.16;58.50;100749.69;5124501;28;20047;-61
2023/03/06 02:19:52;;;;;;;9.35;6.28;;;;;;;7.16;57.73;100746.19;5116036;28;20123;-61
2023/03/06 02:22:20;;;;;;;11.18;7.25;;;;;;;7.14;58.17;100746.41;5119692;28;20040;-61
2023/03/06 02:24:52;;;;;;;8.88;6.18;;;;;;;7.14;58.33;100738.38;5123282;28;20063;-61
2023/03/06 02:27:23;;;;;;;11.48;7.45;;;;;;;7.13;57.78;100741.25;5122552;28;20127;-61
2023/03/06 02:29:51;;;;;;;10.60;6.68;;;;;;;7.12;58.24;100732.41;5121045;27;20515;-61
2023/03/06 02:32:18;;;;;;;10.40;6.95;;;;;;;7.11;58.65;100728.09;5121167;28;20079;-62
2023/03/06 02:34:52;;;;;;;10.00;6.60;;;;;;;7.08;58.53;100731.16;5123314;28;20063;-61
2023/03/06 02:37:21;;;;;;;11.32;7.53;;;;;;;7.05;57.77;100726.22;5120018;28;20147;-60
2023/03/06 02:39:54;;;;;;;10.23;6.80;;;;;;;7.06;58.37;100725.22;5112421;28;20071;-61
2023/03/06 02:42:27;;;;;;;10.80;7.65;;;;;;;7.06;58.36;100717.19;5114421;28;20074;-61
2023/03/06 02:44:58;;;;;;;14.25;7.95;;;;;;;7.08;58.31;100706.28;5114116;28;20055;-61
2023/03/06 02:47:26;;;;;;;10.07;7.38;;;;;;;7.07;58.37;100705.47;5120273;27;20040;-61
2023/03/06 02:49:54;;;;;;;11.38;7.63;;;;;;;7.07;57.98;100704.66;5112330;28;20111;-60
2023/03/06 02:52:21;;;;;;;10.07;6.93;;;;;;;7.06;58.27;100700.34;5121070;27;20054;-61
2023/03/06 02:54:49;;;;;;;10.32;7.78;;;;;;;7.05;58.22;100693.34;5115457;28;20066;-61
2023/03/06 02:57:17;;;;;;;10.88;7.43;;;;;;;7.04;58.58;100689.84;5121294;28;20170;-61
2023/03/06 02:59:46;;;;;;;11.85;8.10;;;;;;;7.05;58.49;100690.66;5123412;28;20090;-61
2023/03/06 03:02:14;;;;;;;14.60;8.65;;;;;;;7.02;58.33;100683.88;5112019;28;20066;-61
2023/03/06 03:04:41;;;;;;;13.00;8.20;;;;;;;6.99;58.48;100689.63;5111117;28;20048;-61
2023/03/06 03:07:09;;;;;;;14.00;9.15;;;;;;;7.00;58.24;100685.13;5122383;28;20047;-61
2023/03/06 03:09:37;;;;;;;12.70;8.43;;;;;;;6.99;58.35;100684.28;5112645;28;20043;-60
2023/03/06 03:12:06;;;;;;;16.23;10.02;;;;;;;6.98;58.70;100679.97;5121211;28;20051;-61
2023/03/06 03:14:34;;;;;;;13.82;9.70;;;;;;;6.98;58.23;100682.63;5117312;28;20043;-60
2023/03/06 03:17:03;;;;;;;13.77;9.50;;;;;;;6.99;58.17;100678.13;5110552;28;20051;-60
2023/03/06 03:19:31;;;;;;;16.13;10.35;;;;;;;6.95;58.13;100677.69;5119181;28;20107;-61
2023/03/06 03:21:59;;;;;;;15.27;10.23;;;;;;;6.95;58.63;100675.03;5120793;28;20048;-61
2023/03/06 03:24:26;;;;;;;15.50;10.70;;;;;;;6.94;58.15;100675.22;5114032;28;20063;-61
2023/03/06 03:26:54;;;;;;;20.20;11.75;;;;;;;6.94;58.68;100677.91;5114364;28;20147;-61
2023/03/06 03:29:22;;;;;;;14.40;10.40;;;;;;;6.93;58.27;100676.28;5114038;28;20619;-61
2023/03/06 03:31:50;;;;;;;17.10;11.63;;;;;;;6.90;58.18;100672.19;5107243;28;20488;-61
2023/03/06 03:34:19;;;;;;;16.70;10.73;;;;;;;6.90;58.44;100660.66;5119699;28;20090;-61
2023/03/06 03:36:47;;;;;;;18.15;12.32;;;;;;;6.91;58.50;100659.63;5115813;28;20048;-61
2023/03/06 03:39:15;;;;;;;16.08;11.55;;;;;;;6.90;58.46;100658.00;5118336;28;20050;-61
2023/03/06 03:41:42;;;;;;;18.63;12.60;;;;;;;6.88;58.45;100658.19;5117544;28;20115;-61
2023/03/06 03:44:10;;;;;;;16.00;11.65;;;;;;;6.86;58.71;100660.25;5116018;28;20607;-61
2023/03/06 03:46:38;;;;;;;18.17;10.95;;;;;;;6.87;58.73;100659.22;5116848;28;20091;-61
2023/03/06 03:49:06;;;;;;;16.75;11.60;;;;;;;6.86;58.45;100654.91;5116858;28;20073;-61
2023/03/06 03:51:35;;;;;;;18.63;12.80;;;;;;;6.85;58.22;100662.09;5114194;28;20067;-61
2023/03/06 03:54:04;;;;;;;18.35;13.18;;;;;;;6.85;58.68;100653.25;5114490;28;20055;-60
2023/03/06 03:56:33;;;;;;;18.98;12.55;;;;;;;6.84;58.68;100646.28;5117848;28;20074;-61
2023/03/06 03:59:01;;;;;;;23.50;13.20;;;;;;;6.83;58.31;100642.78;5123363;28;20115;-61
2023/03/06 04:01:29;;;;;;;18.20;12.93;;;;;;;6.83;58.48;100650.78;5126651;28;20372;-61
2023/03/06 04:03:57;;;;;;;20.40;13.02;;;;;;;6.81;58.43;100638.66;5125268;28;20047;-60
2023/03/06 04:06:24;;;;;;;19.58;13.02;;;;;;;6.80;58.43;100634.34;5125248;28;20070;-60
2023/03/06 04:08:54;;;;;;;22.92;13.23;;;;;;;6.79;58.33;100638.88;5116082;28;20476;-61
2023/03/06 04:11:21;;;;;;;21.48;14.88;;;;;;;6.79;58.83;100638.03;5120685;28;20055;-61
2023/03/06 04:13:49;;;;;;;22.70;14.48;;;;;;;6.75;58.26;100626.13;5120541;28;20107;-61
2023/03/06 04:16:17;;;;;;;22.30;13.93;;;;;;;6.77;58.65;100627.56;5114851;27;20130;-61
2023/03/06 04:18:45;;;;;;;20.45;14.18;;;;;;;6.77;58.47;100629.41;5118958;28;20040;-61
2023/03/06 04:21:12;;;;;;;24.52;15.88;;;;;;;6.75;58.48;100626.94;5125037;28;20044;-61
2023/03/06 04:23:40;;;;;;;21.13;14.85;;;;;;;6.75;58.54;100626.13;5111110;28;20051;-60
2023/03/06 04:26:09;;;;;;;22.23;14.55;;;;;;;6.74;58.53;100625.28;5122377;28;20055;-60
2023/03/06 04:28:37;;;;;;;21.63;14.45;;;;;;;6.72;58.37;100624.66;5111791;28;20528;-60
2023/03/06 04:31:05;;;;;;;22.30;14.98;;;;;;;6.70;58.36;100623.22;5116496;28;20048;-60
2023/03/06 04:33:33;;;;;;;21.83;15.48;;;;;;;6.70;58.42;100617.88;5123275;28;20056;-60
2023/03/06 04:36:01;;;;;;;20.63;14.32;;;;;;;6.68;58.45;100614.59;5120316;27;20496;-60
2023/03/06 04:38:29;;;;;;;21.77;15.05;;;;;;;6.67;58.81;100615.63;5123804;28;20050;-60
2023/03/06 04:40:56;;;;;;;23.50;15.88;;;;;;;6.68;58.50;100617.25;5124679;28;20047;-60
2023/03/06 04:43:26;;;;;;;25.02;15.30;;;;;;;6.64;58.62;100616.84;5122035;28;20058;-61
2023/03/06 04:45:53;;;;;;;23.88;16.02;;;;;;;6.64;58.92;100608.00;5119969;28;20433;-61
2023/03/06 04:48:21;;;;;;;24.52;15.63;;;;;;;6.63;58.87;100614.38;5122053;28;20044;-61
2023/03/06 04:50:49;;;;;;;21.17;14.80;;;;;;;6.60;58.51;100607.59;5119063;28;20071;-61
2023/03/06 04:53:18;;;;;;;23.05;15.02;;;;;;;6.60;58.52;100607.59;5118978;27;20144;-61
2023/03/06 04:55:46;;;;;;;22.20;14.77;;;;;;;6.62;58.71;100607.38;5114132;28;20123;-60
2023/03/06 04:58:14;;;;;;;20.42;14.32;;;;;;;6.60;59.08;100612.94;5121386;28;20132;-61
2023/03/06 05:00:44;;;;;;;24.35;15.23;;;;;;;6.60;58.76;100615.59;5110401;28;20077;-62
2023/03/06 05:03:13;;;;;;;22.52;14.68;;;;;;;6.59;58.65;100605.13;5121434;28;20057;-61
2023/03/06 05:05:40;;;;;;;22.13;14.18;;;;;;;6.60;58.53;100602.25;5114992;28;20043;-61
2023/03/06 05:08:12;;;;;;;24.33;15.40;;;;;;;6.59;58.67;100605.94;5114352;28;20707;-62
2023/03/06 05:10:40;;;;;;;23.98;15.73;;;;;;;6.57;58.52;100608.00;5116482;28;20074;-61
2023/03/06 05:13:08;;;;;;;23.08;14.75;;;;;;;6.58;58.69;100604.31;5121260;28;20051;-61
2023/03/06 05:15:35;;;;;;;23.10;15.10;;;;;;;6.58;58.39;100598.97;5109221;28;20055;-60
2023/03/06 05:18:05;;;;;;;22.35;15.25;;;;;;;6.57;58.88;100596.50;5118470;28;20125;-62
2023/03/06 05:20:32;;;;;;;24.02;15.95;;;;;;;6.56;58.53;100595.66;5120197;28;20140;-61
2023/03/06 05:23:00;;;;;;;22.27;15.90;;;;;;;6.57;58.34;100597.31;5114073;28;20492;-61
2023/03/06 05:25:28;;;;;;;23.77;15.57;;;;;;;6.58;58.61;100598.13;5118157;28;20067;-61
2023/03/06 05:27:55;;;;;;;23.92;14.48;;;;;;;6.55;58.55;100599.38;5118488;28;20059;-61
2023/03/06 05:30:24;;;;;;;23.92;15.52;;;;;;;6.55;58.98;100590.53;5122182;28;20046;-61
2023/03/06 05:32:51;;;;;;;23.23;15.55;;;;;;;6.53;58.46;100594.22;5108834;28;20147;-61
2023/03/06 05:35:23;;;;;;;22.83;15.70;;;;;;;6.53;58.56;100588.06;5113642;28;20107;-62
2023/03/06 05:37:51;;;;;;;26.27;15.32;;;;;;;6.51;58.66;100582.94;5123340;28;20039;-59
2023/03/06 05:40:19;;;;;;;21.92;14.85;;;;;;;6.51;58.68;100584.78;5119678;28;20360;-60
2023/03/06 05:42:47;;;;;;;25.55;15.57;;;;;;;6.50;59.15;100583.94;5114389;28;20044;-60
2023/03/06 05:45:14;;;;;;;21.85;14.20;;;;;;;6.51;59.18;100582.09;5115115;28;20055;-60
2023/03/06 05:47:42;;;;;;;25.95;14.50;;;;;;;6.51;58.46;100585.59;5117330;28;20051;-60
2023/03/06 05:50:12;;;;;;;22.95;15.43;;;;;;;6.51;58.78;100585.59;5117776;28;20071;-60
2023/03/06 05:52:42;;;;;;;25.58;16.20;;;;;;;6.49;58.80;100582.31;5122102;28;20143;-61
2023/03/06 05:55:12;;;;;;;24.90;15.65;;;;;;;6.50;59.06;100583.13;5110900;28;20044;-61
2023/03/06 05:57:40;;;;;;;24.55;15.82;;;;;;;6.48;59.22;100574.50;5121605;28;20423;-61
2023/03/06 06:00:13;;;;;;;24.38;15.63;;;;;;;6.47;58.82;100573.69;5108496;28;20043;-60
2023/03/06 06:02:42;;;;;;;22.70;14.90;;;;;;;6.47;59.13;100576.34;5116203;28;20047;-62
2023/03/06 06:05:11;;;;;;;24.10;15.90;;;;;;;6.47;58.92;100578.19;5116848;28;20119;-61
2023/03/06 06:07:40;;;;;;;23.02;15.13;;;;;;;6.47;59.13;100575.53;5118576;28;20089;-62
2023/03/06 06:10:11;;;;;;;26.10;17.13;;;;;;;6.46;59.28;100581.88;5110058;28;20048;-61
2023/03/06 06:12:39;;;;;;;25.42;16.73;;;;;;;6.45;59.01;100582.91;5117392;28;20071;-61
2023/03/06 06:15:08;;;;;;;25.23;16.10;;;;;;;6.42;59.05;100586.81;5082446;28;1102598;-61
2023/03/06 06:17:35;;;;;;;22.75;15.50;;;;;;;6.42;59.33;100578.78;5113434;27;20048;-62
2023/03/06 06:20:04;;;;;;;27.80;16.02;;;;;;;6.42;59.93;100577.97;5112673;28;20069;-62
2023/03/06 06:22:35;;;;;;;23.92;15.18;;;;;;;6.40;59.20;100575.50;5121075;28;20058;-62
2023/03/06 06:25:02;;;;;;;25.58;16.25;;;;;;;6.40;59.04;100578.16;5117860;28;20588;-63
2023/03/06 06:27:31;;;;;;;23.33;16.08;;;;;;;6.42;59.54;100588.66;5118679;28;20040;-64
2023/03/06 06:29:59;;;;;;;29.33;18.55;;;;;;;6.42;59.27;100583.31;5118544;28;20047;-60
2023/03/06 06:32:27;;;;;;;25.83;17.42;;;;;;;6.55;58.74;100582.53;5115368;28;20052;-63
2023/03/06 06:34:55;;;;;;;27.65;17.25;;;;;;;6.69;58.22;100578.84;5117945;28;20043;-61
2023/03/06 06:37:23;;;;;;;24.48;15.60;;;;;;;6.86;57.73;100580.09;5112840;28;20112;-62
2023/03/06 06:39:51;;;;;;;24.90;15.93;;;;;;;7.03;57.31;100573.31;5121804;28;20054;-60
2023/03/06 06:42:19;;;;;;;26.08;16.77;;;;;;;7.21;56.41;100569.19;5119898;28;20066;-61
2023/03/06 06:45:02;;;;;;;24.92;16.50;;;;;;;7.23;56.39;100569.81;5120503;28;20071;-62
2023/03/06 06:47:30;;;;;;;28.23;16.52;;;;;;;7.21;56.52;100571.88;5112580;28;20513;-61
2023/03/06 06:49:58;;;;;;;23.05;15.48;;;;;;;7.11;57.51;100574.94;5118346;27;20046;-63
2023/03/06 06:52:25;;;;;;;33.63;17.45;;;;;;;6.99;57.25;100566.72;5122924;27;20039;-62
2023/03/06 06:54:53;;;;;;;26.10;16.88;;;;;;;6.94;57.95;100574.53;4759744;28;10000155;-61
2023/03/06 06:57:21;;;;;;;30.35;17.13;;;;;;;6.86;58.00;100572.09;5118009;28;20134;-58
2023/03/06 06:59:49;;;;;;;25.98;17.83;;;;;;;6.80;57.98;100571.06;5115664;28;20067;-58
2023/03/06 07:02:22;;;;;;;26.13;16.90;;;;;;;6.74;58.52;100574.56;5116240;28;20047;-60
2023/03/06 07:04:49;;;;;;;27.05;17.42;;;;;;;6.71;58.38;100574.94;5110382;27;20475;-59
2023/03/06 07:07:30;;;;;;;26.77;16.63;;;;;;;6.65;58.61;100580.28;5107171;28;20052;-60
2023/03/06 07:09:58;;;;;;;28.73;18.15;;;;;;;6.63;58.52;100583.16;5102275;28;20031;-64
2023/03/06 07:12:26;;;;;;;31.98;19.17;;;;;;;6.60;58.86;100580.06;5114597;28;21079;-61
2023/03/06 07:14:53;;;;;;;34.67;18.38;;;;;;;6.48;59.48;100577.16;5116584;28;20053;-62
2023/03/06 07:17:23;;;;;;;28.63;19.00;;;;;;;6.47;59.85;100575.53;5118938;28;20624;-60
2023/03/06 07:19:50;;;;;;;29.10;18.10;;;;;;;6.46;59.95;100581.88;5119717;28;20040;-61
2023/03/06 07:22:18;;;;;;;28.02;18.20;;;;;;;6.43;59.72;100582.28;5115571;28;20058;-61
2023/03/06 07:24:46;;;;;;;30.60;18.30;;;;;;;6.43;59.64;100575.09;5110327;28;20090;-61
2023/03/06 07:27:14;;;;;;;30.88;19.33;;;;;;;6.42;60.06;100580.63;5116721;28;20130;-61
2023/03/06 07:29:42;;;;;;;29.90;18.98;;;;;;;6.42;59.62;100584.13;5107905;28;20048;-61
2023/03/06 07:32:11;;;;;;;35.45;19.85;;;;;;;6.42;59.98;100583.31;5104870;28;20086;-61
2023/03/06 07:34:41;;;;;;;28.40;19.02;;;;;;;6.41;59.93;100579.00;5119787;28;20055;-61
2023/03/06 07:37:09;;;;;;;27.80;18.92;;;;;;;6.40;60.01;100585.34;5119469;28;20071;-60
2023/03/06 07:39:37;;;;;;;33.05;19.45;;;;;;;6.40;59.89;100580.03;5104739;28;20070;-61
2023/03/06 07:42:06;;;;;;;30.83;19.40;;;;;;;6.39;60.26;100578.38;5106353;28;20147;-62
2023/03/06 07:44:36;;;;;;;32.40;19.73;;;;;;;6.34;60.25;100576.31;5119376;28;20054;-61
2023/03/06 07:47:04;;;;;;;26.90;18.67;;;;;;;6.34;59.88;100578.16;5118722;28;20054;-61
2023/03/06 07:49:34;;;;;;;28.20;18.67;;;;;;;6.37;60.09;100581.25;5114173;28;20508;-61
2023/03/06 07:52:03;;;;;;;32.78;20.10;;;;;;;6.34;60.52;100578.16;5110878;28;20075;-61
2023/03/06 07:54:31;;;;;;;27.45;18.52;;;;;;;6.36;60.65;100581.44;5102812;28;20039;-61
2023/03/06 07:56:59;;;;;;;30.40;19.35;;;;;;;6.37;60.58;100581.25;5109980;28;20047;-61
2023/03/06 07:59:27;;;;;;;32.63;20.08;;;;;;;6.36;60.43;100579.59;5117674;28;20044;-61
2023/03/06 08:01:56;;;;;;;29.48;19.95;;;;;;;6.36;60.50;100578.78;5119797;28;20288;-61
2023/03/06 08:04:24;;;;;;;29.15;19.40;;;;;;;6.37;60.35;100578.56;5117776;28;20563;-62
2023/03/06 08:06:52;;;;;;;30.67;19.13;;;;;;;6.35;60.22;100585.97;5118680;28;20580;-61
2023/03/06 08:09:21;;;;;;;32.10;20.65;;;;;;;6.37;60.57;100581.25;5111602;28;20107;-62
2023/03/06 08:11:49;;;;;;;31.70;19.45;;;;;;;6.37;60.83;100578.56;5117997;28;20506;-62
2023/03/06 08:14:17;;;;;;;28.08;17.70;;;;;;;6.37;60.70;100583.91;5109103;28;20074;-61
2023/03/06 08:16:44;;;;;;;27.08;18.77;;;;;;;6.38;60.31;100584.72;5115209;28;20050;-61
2023/03/06 08:19:12;;;;;;;29.17;18.52;;;;;;;6.37;60.38;100586.59;5112144;28;20050;-61
2023/03/06 08:21:40;;;;;;;29.70;18.38;;;;;;;6.37;60.28;100589.25;5119285;28;20113;-61
2023/03/06 08:24:08;;;;;;;31.55;19.55;;;;;;;6.27;60.48;100574.63;5113493;28;20046;-61
2023/03/06 08:26:37;;;;;;;29.98;19.40;;;;;;;6.37;60.61;100591.91;5116235;28;20047;-60
2023/03/06 08:29:06;;;;;;;27.83;18.98;;;;;;;6.37;60.80;100586.59;5119198;28;20491;-60
2023/03/06 08:31:37;;;;;;;31.85;19.92;;;;;;;6.36;60.87;100586.78;5119761;28;20075;-60
2023/03/06 08:34:08;;;;;;;33.70;21.17;;;;;;;6.34;60.68;100588.81;5112191;28;20233;-61
2023/03/06 08:36:36;;;;;;;33.28;19.77;;;;;;;6.36;60.90;100595.63;5111004;28;20115;-60
2023/03/06 08:39:05;;;;;;;31.83;18.85;;;;;;;6.30;60.51;100585.75;5117804;28;20066;-61
2023/03/06 08:41:33;;;;;;;31.50;19.25;;;;;;;6.36;61.41;100590.28;5119452;28;20251;-61
2023/03/06 08:44:03;;;;;;;28.05;19.13;;;;;;;6.37;61.07;100591.09;5118135;28;20051;-61
2023/03/06 08:46:32;;;;;;;31.80;18.98;;;;;;;6.36;61.09;100587.59;5119605;28;20048;-60
2023/03/06 08:48:59;;;;;;;29.65;18.75;;;;;;;6.37;60.89;100597.25;5118467;28;20071;-60
2023/03/06 08:51:28;;;;;;;49.80;19.70;;;;;;;6.46;60.80;100592.56;5120533;28;20436;-61
2023/03/06 08:53:57;;;;;;;26.15;16.83;;;;;;;6.61;60.32;100595.06;5119214;28;20051;-61
2023/03/06 08:56:27;;;;;;;30.45;18.13;;;;;;;6.75;59.73;100581.53;5125444;28;20049;-61
2023/03/06 08:58:56;;;;;;;26.35;17.42;;;;;;;6.98;59.32;100589.13;5124358;27;20050;-60
2023/03/06 09:01:27;;;;;;;26.08;16.58;;;;;;;7.19;58.70;100582.75;5120964;28;20071;-60
2023/03/06 09:03:57;;;;;;;25.27;17.42;;;;;;;7.37;58.17;100584.81;5114971;28;20048;-61
2023/03/06 09:06:26;;;;;;;27.95;18.20;;;;;;;7.56;57.61;100581.28;5114766;28;20039;-64
2023/03/06 09:08:55;;;;;;;25.65;16.48;;;;;;;7.73;56.75;100587.84;5114789;28;20130;-61
2023/03/06 09:11:24;;;;;;;28.25;16.85;;;;;;;7.82;56.92;100581.22;5122294;28;20453;-61
2023/03/06 09:13:52;;;;;;;26.25;16.73;;;;;;;7.78;56.85;100590.72;5119579;28;20507;-63
2023/03/06 09:16:21;;;;;;;24.38;16.70;;;;;;;7.60;57.02;100579.84;5123560;27;20111;-62
2023/03/06 09:18:51;;;;;;;25.42;16.58;;;;;;;7.50;58.47;100590.13;5113759;28;20040;-62
2023/03/06 09:21:20;;;;;;;25.88;15.90;;;;;;;7.38;58.32;100584.59;5116782;28;20162;-62
2023/03/06 09:23:48;;;;;;;25.02;17.30;;;;;;;7.27;58.63;100589.75;5124106;28;20043;-62
2023/03/06 09:26:16;;;;;;;28.27;18.00;;;;;;;7.18;59.58;100591.81;5121119;28;20058;-61
2023/03/06 09:28:44;;;;;;;24.95;15.40;;;;;;;7.09;59.54;100590.38;5121570;28;20069;-62
2023/03/06 09:31:14;;;;;;;22.95;15.93;;;;;;;7.03;60.07;100593.88;5126091;28;20075;-62
2023/03/06 09:33:42;;;;;;;27.02;16.77;;;;;;;6.97;60.22;100590.16;5117387;27;20497;-61
2023/03/06 09:36:15;;;;;;;27.38;16.83;;;;;;;6.92;59.96;100599.84;5119090;28;20063;-62
2023/03/06 09:38:44;;;;;;;25.58;16.75;;;;;;;6.91;60.54;100601.69;5117757;28;20111;-63
2023/03/06 09:41:26;;;;;;;30.08;17.88;;;;;;;6.87;60.89;100594.28;5126320;28;20123;-62
2023/03/06 09:43:57;;;;;;;24.30;16.00;;;;;;;6.89;60.81;100597.56;5119758;27;20047;-63
2023/03/06 09:46:31;;;;;;;27.77;17.50;;;;;;;6.89;60.46;100594.91;5113409;28;20047;-63
2023/03/06 09:49:12;;;;;;;26.83;17.05;;;;;;;7.04;60.92;100592.84;5112535;28;20048;-62
2023/03/06 09:51:56;;;;;;;27.83;17.25;;;;;;;7.23;59.48;100591.19;5117866;28;20075;-61
2023/03/06 09:54:32;;;;;;;24.33;16.27;;;;;;;7.44;59.37;100588.28;5121003;27;20047;-62
2023/03/06 09:57:00;;;;;;;25.23;16.70;;;;;;;7.66;58.40;100587.03;5116014;28;20120;-61
2023/03/06 09:59:28;;;;;;;26.20;17.25;;;;;;;7.87;57.89;100587.81;5113939;28;20107;-61
2023/03/06 10:02:01;;;;;;;24.25;15.38;;;;;;;8.08;57.07;100590.19;5120174;28;20054;-61
2023/03/06 10:04:36;;;;;;;26.42;16.65;;;;;;;8.26;56.61;100587.66;5117962;28;20043;-61
2023/03/06 10:07:12;;;;;;;25.13;15.93;;;;;;;8.40;56.84;100591.13;5115433;28;20054;-61
2023/03/06 10:09:46;;;;;;;24.38;15.88;;;;;;;8.53;56.05;100583.00;5122283;28;20105;-62
2023/03/06 10:12:22;;;;;;;23.60;15.98;;;;;;;8.64;56.30;100585.00;4762696;28;9999842;-62
2023/03/06 10:15:02;;;;;;;23.50;14.98;;;;;;;8.73;55.69;100582.88;5115007;28;20058;-62
2023/03/06 10:17:35;;;;;;;24.90;15.77;;;;;;;8.83;55.49;100588.56;5121313;28;20309;-63
2023/03/06 10:20:16;;;;;;;25.35;14.85;;;;;;;8.85;55.18;100575.78;5116036;28;20106;-61
2023/03/06 10:22:53;;;;;;;23.17;15.13;;;;;;;8.90;54.89;100580.47;5110158;28;20055;-61
2023/03/06 10:25:32;;;;;;;23.58;15.50;;;;;;;8.92;54.70;100581.91;5111462;28;20069;-62
2023/03/06 10:28:12;;;;;;;21.73;13.82;;;;;;;8.91;54.82;100582.13;5111191;28;20075;-61
2023/03/06 10:30:45;;;;;;;23.15;15.07;;;;;;;8.88;55.52;100577.19;5121231;28;20040;-62
2023/03/06 10:33:22;;;;;;;20.13;14.40;;;;;;;8.75;55.68;100581.63;5119342;27;20111;-61
2023/03/06 10:35:51;;;;;;;19.65;13.77;;;;;;;8.56;56.59;100579.91;5118676;28;20118;-61
2023/03/06 10:38:22;;;;;;;23.00;15.15;;;;;;;8.32;56.43;100586.81;5113090;28;20059;-64
2023/03/06 10:41:07;;;;;;;24.50;17.02;;;;;;;8.13;57.89;100588.53;5110648;28;20158;-63
2023/03/06 10:43:36;;;;;;;22.50;15.65;;;;;;;8.19;57.73;100594.06;5119229;28;20069;-63
2023/03/06 10:46:06;;;;;;;23.58;16.63;;;;;;;8.29;57.02;100586.41;5117357;28;20079;-64
2023/03/06 10:48:35;;;;;;;28.17;16.35;;;;;;;8.44;56.71;100593.16;5107565;28;20376;-65
2023/03/06 10:51:17;;;;;;;21.92;15.85;;;;;;;8.63;56.28;100583.38;5113868;28;20058;-62
2023/03/06 10:53:53;;;;;;;20.60;14.35;;;;;;;8.80;56.14;100583.66;5117064;28;20043;-62
2023/03/06 10:56:28;;;;;;;22.00;15.45;;;;;;;8.86;55.48;100585.47;5117846;28;20619;-63
2023/03/06 10:59:08;;;;;;;26.13;14.88;;;;;;;8.77;56.23;100589.44;5109935;28;20080;-63
2023/03/06 11:01:36;;;;;;;23.85;15.13;;;;;;;8.60;56.47;100585.66;5118798;28;20043;-63
2023/03/06 11:04:26;;;;;;;23.77;16.50;;;;;;;8.41;56.97;100588.22;5112541;28;20047;-62
2023/03/06 11:07:16;;;;;;;22.75;15.90;;;;;;;8.25;57.40;100595.91;5105987;28;20115;-63
2023/03/06 11:10:03;;;;;;;24.08;16.20;;;;;;;8.08;57.83;100592.88;5118266;28;20067;-62
2023/03/06 11:12:33;;;;;;;22.60;14.68;;;;;;;7.86;58.39;100572.78;5106214;28;20047;-62
2023/03/06 11:15:12;;;;;;;21.70;15.68;;;;;;;7.91;58.59;100586.34;5115414;28;20102;-63
2023/03/06 11:17:49;;;;;;;23.70;14.48;;;;;;;7.86;58.89;100583.47;5066878;28;20586;-65
2023/03/06 11:20:19;;;;;;;21.30;14.13;;;;;;;7.79;58.69;100578.16;5071056;28;20076;-65
2023/03/06 11:22:50;;;;;;;20.98;14.50;;;;;;;7.74;58.80;100576.09;5078292;28;20047;-64
2023/03/06 11:25:22;;;;;;;21.17;14.52;;;;;;;7.71;59.04;100576.53;5067134;28;20045;-63
2023/03/06 11:27:57;;;;;;;23.02;14.00;;;;;;;7.67;59.26;100569.13;5081073;28;20048;-62
2023/03/06 11:30:33;;;;;;;22.38;14.98;;;;;;;7.64;60.04;100574.91;5082566;28;20119;-62
2023/03/06 11:33:08;;;;;;;21.60;15.02;;;;;;;7.63;59.57;100567.91;5082142;28;20048;-63